createdAt,value
2023-02-06T00:02:44.090Z,5.33
2023-02-06T00:07:45.806Z,5.13
2023-02-06T00:12:47.395Z,4.93
2023-02-06T00:17:49.212Z,4.91
2023-02-06T00:22:50.843Z,4.83
2023-02-06T00:27:52.442Z,4.63
2023-02-06T00:32:54.010Z,4.60
2023-02-06T00:37:56.603Z,4.45
2023-02-06T00:42:58.212Z,4.36
2023-02-06T00:48:00.180Z,4.33
2023-02-06T00:53:01.985Z,4.23
2023-02-06T00:58:03.829Z,4.20
2023-02-06T01:03:05.397Z,4.03
2023-02-06T01:08:07.122Z,3.73
2023-02-06T01:13:09.218Z,3.46
2023-02-06T01:18:10.860Z,3.37
2023-02-06T01:23:15.245Z,3.32
2023-02-06T01:28:19.068Z,3.17
2023-02-06T01:33:21.610Z,3.22
2023-02-06T01:38:23.106Z,3.26
2023-02-06T01:43:27.616Z,3.24
2023-02-06T01:48:35.424Z,3.18
2023-02-06T01:53:38.620Z,3.07
2023-02-06T01:58:44.429Z,3.01
2023-02-06T02:03:49.854Z,2.96
2023-02-06T02:08:54.463Z,2.98
2023-02-06T02:13:57.270Z,2.84
2023-02-06T02:19:35.742Z,2.67
2023-02-06T02:24:55.999Z,2.83
2023-02-06T02:30:15.973Z,2.89
2023-02-06T02:35:34.003Z,2.95
2023-02-06T02:40:47.046Z,2.89
2023-02-06T02:46:00.153Z,2.82
2023-02-06T02:51:01.942Z,2.80
2023-02-06T02:56:19.223Z,2.75
2023-02-06T03:01:27.801Z,2.89
2023-02-06T03:06:55.526Z,2.91
2023-02-06T03:12:25.324Z,2.84
2023-02-06T03:17:34.013Z,2.71
2023-02-06T03:22:37.115Z,2.57
2023-02-06T03:27:43.179Z,2.54
2023-02-06T03:32:49.273Z,2.56
2023-02-06T03:37:50.869Z,2.50
2023-02-06T03:42:56.525Z,2.45
2023-02-06T03:48:06.246Z,2.44
2023-02-06T03:53:10.292Z,2.40
2023-02-06T03:58:13.933Z,2.23
2023-02-06T04:03:16.716Z,1.97
2023-02-06T04:08:18.458Z,1.91
2023-02-06T04:13:20.174Z,1.89
2023-02-06T04:18:22.054Z,1.86
2023-02-06T04:23:23.593Z,1.88
2023-02-06T04:28:25.186Z,1.79
2023-02-06T04:33:26.894Z,1.72
2023-02-06T04:38:28.454Z,1.63
2023-02-06T04:43:31.347Z,1.57
2023-02-06T04:48:32.941Z,1.50
2023-02-06T04:53:34.718Z,1.53
2023-02-06T04:58:39.267Z,1.61
2023-02-06T05:03:40.830Z,1.54
2023-02-06T05:08:42.847Z,1.61
2023-02-06T05:13:44.540Z,1.83
2023-02-06T05:18:46.146Z,2.05
2023-02-06T05:23:47.670Z,2.31
2023-02-06T05:28:49.254Z,2.50
2023-02-06T05:33:52.528Z,2.56
2023-02-06T05:38:54.314Z,2.53
2023-02-06T05:43:55.940Z,2.49
2023-02-06T05:48:57.572Z,2.65
2023-02-06T05:53:59.231Z,2.67
2023-02-06T05:59:00.798Z,2.85
2023-02-06T06:04:03.416Z,2.90
2023-02-06T06:09:05.124Z,3.01
2023-02-06T06:14:06.945Z,3.04
2023-02-06T06:19:08.648Z,2.92
2023-02-06T06:24:10.275Z,3.02
2023-02-06T06:29:11.918Z,3.01
2023-02-06T06:34:13.699Z,3.06
2023-02-06T06:39:15.372Z,3.09
2023-02-06T06:44:16.973Z,3.16
2023-02-06T06:49:18.937Z,3.18
2023-02-06T06:54:20.461Z,3.22
2023-02-06T06:59:22.020Z,3.22
2023-02-06T07:04:23.533Z,3.32
2023-02-06T07:09:25.442Z,3.34
2023-02-06T07:14:27.161Z,3.44
2023-02-06T07:19:28.766Z,3.43
2023-02-06T07:24:30.456Z,3.41
2023-02-06T07:29:32.244Z,3.50
2023-02-06T07:34:33.919Z,3.58
2023-02-06T07:39:35.582Z,3.74
2023-02-06T07:44:37.146Z,3.83
2023-02-06T07:49:38.732Z,3.93
2023-02-06T07:54:40.241Z,3.99
2023-02-06T07:59:41.992Z,4.00
2023-02-06T08:04:44.055Z,4.19
2023-02-06T08:09:45.737Z,4.41
2023-02-06T08:14:47.277Z,4.56
2023-02-06T08:19:49.316Z,4.73
2023-02-06T08:24:51.157Z,4.72
2023-02-06T08:29:53.454Z,4.65
2023-02-06T08:34:55.007Z,4.64
2023-02-06T08:39:56.617Z,4.94
2023-02-06T08:44:58.230Z,5.04
2023-02-06T08:50:02.910Z,4.96
2023-02-06T08:55:05.147Z,5.18
2023-02-06T09:00:07.554Z,5.03
2023-02-06T09:05:09.118Z,5.04
2023-02-06T09:10:22.123Z,4.99
2023-02-06T09:15:28.465Z,5.12
2023-02-06T09:20:30.030Z,5.20
2023-02-06T09:25:31.599Z,5.21
2023-02-06T09:30:33.196Z,5.25
2023-02-06T09:35:35.328Z,5.51
2023-02-06T09:40:37.673Z,5.68
2023-02-06T09:45:39.775Z,5.72
2023-02-06T09:51:00.302Z,6.09
2023-02-06T09:56:09.900Z,5.82
2023-02-06T10:01:43.566Z,6.09
2023-02-06T10:06:59.843Z,6.04
2023-02-06T10:12:12.908Z,6.57
2023-02-06T10:17:29.115Z,6.75
2023-02-06T10:22:49.585Z,7.20
2023-02-06T10:27:57.322Z,7.02
2023-02-06T10:33:34.317Z,7.81
2023-02-06T10:38:49.573Z,9.30
2023-02-06T10:44:01.929Z,8.83
2023-02-06T10:49:20.462Z,7.62
2023-02-06T10:54:43.008Z,6.75
2023-02-06T10:59:49.420Z,7.00
2023-02-06T11:04:53.609Z,8.24
2023-02-06T11:09:55.381Z,9.04
2023-02-06T11:15:01.656Z,8.49
2023-02-06T11:20:20.201Z,9.17
2023-02-06T11:25:29.093Z,9.86
2023-02-06T11:30:35.404Z,10.10
2023-02-06T11:35:47.400Z,10.06
2023-02-06T11:40:54.678Z,9.24
2023-02-06T11:46:11.396Z,9.46
2023-02-06T11:51:14.429Z,9.21
2023-02-06T11:56:19.431Z,9.63
2023-02-06T12:01:22.335Z,9.14
2023-02-06T12:06:38.439Z,10.10
2023-02-06T12:11:48.726Z,9.42
2023-02-06T12:16:52.252Z,9.91
2023-02-06T12:21:59.889Z,9.96
2023-02-06T12:27:18.251Z,9.81
2023-02-06T12:32:24.887Z,10.30
2023-02-06T12:37:55.288Z,9.50
2023-02-06T12:43:03.110Z,10.15
2023-02-06T12:48:27.809Z,9.89
2023-02-06T12:53:43.140Z,9.02
2023-02-06T12:58:51.369Z,9.49
2023-02-06T13:03:58.260Z,9.19
2023-02-06T13:09:04.435Z,9.83
2023-02-06T13:14:25.761Z,9.73
2023-02-06T13:19:50.988Z,9.49
2023-02-06T13:24:52.684Z,8.96
2023-02-06T13:29:54.413Z,8.41
2023-02-06T13:35:13.840Z,8.31
2023-02-06T13:40:24.495Z,8.23
2023-02-06T13:45:31.191Z,8.18
2023-02-06T13:50:44.202Z,7.78
2023-02-06T13:56:29.102Z,7.82
2023-02-06T14:01:31.041Z,7.67
2023-02-06T14:06:46.170Z,7.63
2023-02-06T14:11:56.703Z,7.38
2023-02-06T14:17:21.556Z,7.60
2023-02-06T14:22:32.330Z,7.37
2023-02-06T14:27:46.339Z,7.94
2023-02-06T14:33:12.421Z,8.43
2023-02-06T14:38:20.214Z,8.28
2023-02-06T14:43:29.847Z,8.10
2023-02-06T14:48:40.355Z,8.02
2023-02-06T14:53:54.497Z,8.00
2023-02-06T14:59:13.619Z,7.77
2023-02-06T15:04:18.460Z,7.77
2023-02-06T15:09:34.534Z,7.75
2023-02-06T15:15:21.808Z,7.41
2023-02-06T15:20:29.817Z,7.44
2023-02-06T15:26:10.816Z,7.52
2023-02-06T15:31:21.170Z,7.50
2023-02-06T15:36:24.288Z,7.51
2023-02-06T15:41:28.063Z,7.50
2023-02-06T15:46:30.976Z,7.60
2023-02-06T15:51:53.799Z,7.79
2023-02-06T15:57:30.327Z,7.83
2023-02-06T16:02:35.017Z,7.56
2023-02-06T16:07:36.801Z,7.69
2023-02-06T16:12:41.503Z,7.65
2023-02-06T16:17:43.094Z,7.60
2023-02-06T16:22:44.721Z,7.68
2023-02-06T16:27:46.649Z,7.65
2023-02-06T16:32:48.748Z,7.70
2023-02-06T16:37:52.114Z,7.72
2023-02-06T16:42:54.158Z,7.53
2023-02-06T16:47:56.354Z,7.49
2023-02-06T16:53:00.531Z,7.59
2023-02-06T16:58:02.361Z,7.53
2023-02-06T17:03:04.137Z,7.32
2023-02-06T17:08:24.145Z,7.46
2023-02-06T17:13:25.748Z,7.41
2023-02-06T17:18:27.472Z,7.26
2023-02-06T17:23:29.282Z,6.88
2023-02-06T17:28:31.378Z,6.50
2023-02-06T17:33:33.920Z,6.45
2023-02-06T17:38:35.413Z,6.57
2023-02-06T17:43:37.135Z,6.20
2023-02-06T17:48:39.002Z,6.09
2023-02-06T17:53:40.794Z,5.99
2023-02-06T17:58:43.458Z,5.23
2023-02-06T18:03:47.630Z,5.14
2023-02-06T18:08:50.068Z,5.22
2023-02-06T18:13:51.647Z,5.53
2023-02-06T18:18:54.021Z,5.80
2023-02-06T18:23:55.724Z,5.96
2023-02-06T18:28:57.447Z,5.94
2023-02-06T18:33:59.245Z,5.69
2023-02-06T18:39:00.922Z,5.53
2023-02-06T18:44:04.619Z,5.59
2023-02-06T18:49:06.513Z,5.70
2023-02-06T18:54:08.033Z,5.59
2023-02-06T18:59:09.640Z,5.50
2023-02-06T19:04:11.280Z,5.17
2023-02-06T19:09:13.566Z,4.98
2023-02-06T19:14:17.120Z,4.64
2023-02-06T19:19:19.115Z,4.54
2023-02-06T19:24:20.642Z,4.72
2023-02-06T19:29:34.824Z,4.99
2023-02-06T19:34:38.343Z,4.37
2023-02-06T19:39:40.605Z,4.56
2023-02-06T19:44:42.833Z,4.64
2023-02-06T19:49:44.810Z,4.44
2023-02-06T19:54:46.615Z,3.71
2023-02-06T19:59:49.065Z,3.31
2023-02-06T20:04:50.594Z,3.44
2023-02-06T20:09:52.513Z,4.02
2023-02-06T20:14:54.041Z,4.11
2023-02-06T20:19:58.824Z,3.92
2023-02-06T20:25:00.313Z,3.93
2023-02-06T20:30:02.179Z,3.95
2023-02-06T20:35:03.915Z,3.83
2023-02-06T20:40:08.809Z,3.90
2023-02-06T20:45:11.343Z,3.75
2023-02-06T20:50:13.002Z,3.67
2023-02-06T20:55:14.601Z,3.35
2023-02-06T21:00:16.519Z,2.56
2023-02-06T21:05:18.182Z,2.15
2023-02-06T21:10:19.973Z,1.99
2023-02-06T21:15:21.578Z,1.71
2023-02-06T21:20:23.176Z,1.88
2023-02-06T21:25:24.846Z,2.27
2023-02-06T21:30:26.528Z,1.91
2023-02-06T21:35:28.063Z,2.15
2023-02-06T21:40:29.594Z,2.18
2023-02-06T21:45:31.238Z,1.99
2023-02-06T21:50:33.322Z,2.50
2023-02-06T21:55:35.486Z,2.39
2023-02-06T22:00:37.183Z,2.26
2023-02-06T22:05:39.509Z,1.83
2023-02-06T22:10:41.081Z,1.84
2023-02-06T22:15:48.523Z,1.57
2023-02-06T22:20:50.216Z,1.39
2023-02-06T22:25:51.733Z,1.41
2023-02-06T22:30:53.389Z,1.66
2023-02-06T22:35:54.979Z,0.99
2023-02-06T22:41:00.900Z,0.59
2023-02-06T22:46:03.051Z,0.21
2023-02-06T22:51:10.024Z,-0.02
2023-02-06T22:56:20.534Z,-0.25
2023-02-06T23:01:24.644Z,-0.33
2023-02-06T23:06:28.009Z,-0.20
2023-02-06T23:11:30.011Z,-0.15
2023-02-06T23:16:33.145Z,-0.11
2023-02-06T23:21:38.698Z,-0.07
2023-02-06T23:26:46.761Z,-0.02
2023-02-06T23:31:49.574Z,-0.07
2023-02-06T23:36:51.473Z,-0.22
2023-02-06T23:41:53.088Z,-0.27
2023-02-06T23:46:54.748Z,-0.38
2023-02-06T23:51:56.277Z,-0.36
2023-02-06T23:56:57.775Z,0.04
